Time;durP1;ratioP1;P1;durP2;ratioP2;P2;SDS_P1;SDS_P2;PMS_P1;PMS_P2;Temp;Humidity;BMP_temperature;BMP_pressure;BME280_temperature;BME280_humidity;BME280_pressure;Samples;Min_cycle;Max_cycle;Signal;HPM_P1;HPM_P2
2021/12/01 00:00:56;;;;;;;;;;;23.10;27.60;;;;;;5121691;27;19976;-53
2021/12/01 00:03:21;;;;;;;;;;;23.10;27.70;;;;;;5127083;27;19923;-60
2021/12/01 00:05:47;;;;;;;;;;;23.10;27.60;;;;;;5120821;27;19927;-57
2021/12/01 00:08:13;;;;;;;;;;;22.90;27.90;;;;;;5103144;27;20481;-58
2021/12/01 00:10:39;;;;;;;;;;;23.00;27.80;;;;;;5127054;27;19933;-57
2021/12/01 00:13:05;;;;;;;;;;;22.90;27.90;;;;;;5121643;27;20022;-53
2021/12/01 00:15:31;;;;;;;;;;;23.00;27.70;;;;;;5121246;27;20211;-53
2021/12/01 00:17:57;;;;;;;;;;;23.00;27.90;;;;;;5126347;27;20022;-52
2021/12/01 00:20:23;;;;;;;;;;;23.00;27.90;;;;;;5121183;27;20298;-52
2021/12/01 00:22:49;;;;;;;;;;;23.00;28.00;;;;;;5126101;27;19923;-51
2021/12/01 00:25:15;;;;;;;;;;;23.10;27.90;;;;;;5121617;27;20600;-51
2021/12/01 00:27:42;;;;;;;;;;;23.10;28.00;;;;;;5103444;27;19967;-50
2021/12/01 00:30:08;;;;;;;;;;;23.10;28.10;;;;;;5126919;27;20351;-51
2021/12/01 00:32:34;;;;;;;;;;;23.20;28.10;;;;;;5121449;27;19927;-58
2021/12/01 00:35:01;;;;;;;;;;;23.00;28.30;;;;;;5121017;27;19934;-54
2021/12/01 00:37:27;;;;;;;;;;;22.90;28.50;;;;;;5126305;27;19924;-53
2021/12/01 00:39:53;;;;;;;;;;;22.90;28.70;;;;;;5121204;27;20295;-56
2021/12/01 00:42:19;;;;;;;;;;;22.90;28.80;;;;;;5124202;27;19928;-54
2021/12/01 00:44:55;;;;;;;;;;;22.70;28.90;;;;;;5123248;28;20015;-54
2021/12/01 00:47:23;;;;;;;;;;;22.90;28.60;;;;;;5121204;28;19967;-53
2021/12/01 00:49:49;;;;;;;;;;;23.00;28.60;;;;;;5108440;28;19967;-53
2021/12/01 00:52:15;;;;;;;;;;;23.00;28.50;;;;;;5121068;28;19935;-51
2021/12/01 00:54:40;;;;;;;;;;;23.00;28.50;;;;;;5120777;28;20371;-51
2021/12/01 00:57:06;;;;;;;;;;;22.90;28.50;;;;;;5126148;28;19923;-51
2021/12/01 00:59:34;;;;;;;;;;;22.90;28.60;;;;;;5120622;28;19923;-51
2021/12/01 01:01:59;;;;;;;;;;;22.90;28.60;;;;;;5121896;27;20370;-51
2021/12/01 01:04:25;;;;;;;;;;;23.00;28.50;;;;;;5130947;27;19923;-48
2021/12/01 01:06:51;;;;;;;;;;;23.10;28.40;;;;;;5125484;27;19988;-57
2021/12/01 01:09:17;;;;;;;;;;;23.00;28.40;;;;;;5130377;27;19969;-54
2021/12/01 01:17:13;;;;;;;;;;;23.00;28.20;;;;;;5127234;27;19927;-60
2021/12/01 01:19:39;;;;;;;;;;;23.10;28.00;;;;;;5128025;27;19928;-53
2021/12/01 01:22:05;;;;;;;;;;;23.10;28.00;;;;;;5124877;27;19923;-53
2021/12/01 01:24:31;;;;;;;;;;;23.00;28.00;;;;;;5130036;27;19928;-53
2021/12/01 01:26:57;;;;;;;;;;;23.20;27.80;;;;;;5124756;27;20365;-54
2021/12/01 01:29:23;;;;;;;;;;;23.10;27.90;;;;;;5124952;27;19950;-55
2021/12/01 01:31:49;;;;;;;;;;;23.10;27.90;;;;;;5129750;27;19927;-51
2021/12/01 01:34:15;;;;;;;;;;;23.00;28.00;;;;;;5124549;27;19923;-55
2021/12/01 01:36:41;;;;;;;;;;;23.10;27.90;;;;;;5123642;27;19927;-54
2021/12/01 01:39:07;;;;;;;;;;;23.10;28.00;;;;;;5129821;27;19931;-53
2021/12/01 01:41:32;;;;;;;;;;;23.10;28.00;;;;;;5120455;27;19973;-58
2021/12/01 01:43:58;;;;;;;;;;;23.00;28.10;;;;;;5129435;27;19934;-57
2021/12/01 01:46:24;;;;;;;;;;;22.90;28.20;;;;;;5124223;27;20335;-55
2021/12/01 01:48:53;;;;;;;;;;;23.00;28.10;;;;;;5105698;27;19932;-54
2021/12/01 01:51:21;;;;;;;;;;;23.00;27.90;;;;;;5111010;27;19927;-52
2021/12/01 01:53:49;;;;;;;;;;;23.00;27.90;;;;;;5124021;27;19923;-57
2021/12/01 01:56:14;;;;;;;;;;;22.80;28.10;;;;;;5123305;27;19979;-56
2021/12/01 01:58:40;;;;;;;;;;;23.00;27.90;;;;;;5129585;27;20366;-53
2021/12/01 02:01:07;;;;;;;;;;;23.00;27.80;;;;;;5124366;27;19927;-55
2021/12/01 02:03:43;;;;;;;;;;;23.10;27.70;;;;;;5128698;27;20391;-55
2021/12/01 02:06:09;;;;;;;;;;;23.00;27.90;;;;;;5128593;27;19923;-56
2021/12/01 02:08:37;;;;;;;;;;;23.00;27.80;;;;;;5123603;27;19923;-53
2021/12/01 02:11:04;;;;;;;;;;;23.00;27.80;;;;;;5110785;27;19948;-52
2021/12/01 02:13:30;;;;;;;;;;;23.10;27.80;;;;;;5122942;27;19961;-55
2021/12/01 02:15:56;;;;;;;;;;;23.10;27.80;;;;;;5123902;27;19976;-55
2021/12/01 02:18:22;;;;;;;;;;;23.00;27.90;;;;;;5129230;27;19931;-52
2021/12/01 02:20:57;;;;;;;;;;;23.10;27.70;;;;;;5123576;27;19956;-53
2021/12/01 02:23:23;;;;;;;;;;;23.10;27.70;;;;;;5123636;27;20319;-54
2021/12/01 02:25:49;;;;;;;;;;;23.10;27.70;;;;;;5128561;27;19923;-55
2021/12/01 02:28:15;;;;;;;;;;;23.10;27.70;;;;;;5123292;27;19924;-55
2021/12/01 02:30:41;;;;;;;;;;;23.10;27.70;;;;;;5127207;27;19924;-54
2021/12/01 02:33:06;;;;;;;;;;;23.10;27.70;;;;;;5124271;27;19930;-58
2021/12/01 02:35:32;;;;;;;;;;;23.00;27.80;;;;;;5104463;27;19932;-53
2021/12/01 02:37:58;;;;;;;;;;;23.00;27.80;;;;;;5128598;27;19930;-54
2021/12/01 02:40:24;;;;;;;;;;;23.00;27.90;;;;;;5123433;27;19949;-53
2021/12/01 02:42:50;;;;;;;;;;;23.00;28.00;;;;;;5123207;27;19923;-63
2021/12/01 02:45:16;;;;;;;;;;;23.00;27.90;;;;;;5128305;27;20010;-56
2021/12/01 02:47:42;;;;;;;;;;;22.80;28.20;;;;;;5123095;27;20306;-55
2021/12/01 02:50:08;;;;;;;;;;;22.80;28.30;;;;;;5124530;27;19923;-57
2021/12/01 02:52:34;;;;;;;;;;;22.90;28.20;;;;;;5126787;27;19928;-55
2021/12/01 02:55:02;;;;;;;;;;;22.90;28.20;;;;;;5123045;27;20018;-55
2021/12/01 02:57:28;;;;;;;;;;;23.00;28.10;;;;;;5109926;27;19956;-56
2021/12/01 02:59:54;;;;;;;;;;;22.90;28.10;;;;;;5122782;27;20431;-53
2021/12/01 03:02:19;;;;;;;;;;;23.00;28.00;;;;;;5122637;27;20786;-54
2021/12/01 03:04:45;;;;;;;;;;;23.00;28.00;;;;;;5127754;27;19943;-54
2021/12/01 03:07:13;;;;;;;;;;;23.00;28.00;;;;;;5122150;27;21302;-52
2021/12/01 03:09:38;;;;;;;;;;;23.00;28.00;;;;;;5122116;27;19934;-53
2021/12/01 03:12:04;;;;;;;;;;;23.00;28.00;;;;;;5128211;27;19923;-50
2021/12/01 03:14:31;;;;;;;;;;;23.00;28.00;;;;;;5123263;27;19934;-51
2021/12/01 03:16:56;;;;;;;;;;;23.00;28.00;;;;;;5123944;27;20386;-55
2021/12/01 03:19:22;;;;;;;;;;;23.00;28.00;;;;;;5122544;27;19931;-54
2021/12/01 03:21:48;;;;;;;;;;;23.00;28.10;;;;;;5122205;27;19930;-50
2021/12/01 03:24:14;;;;;;;;;;;23.10;28.10;;;;;;5127336;27;19927;-48
2021/12/01 03:26:39;;;;;;;;;;;23.20;28.00;;;;;;5122197;27;19923;-53
2021/12/01 03:29:05;;;;;;;;;;;23.10;28.00;;;;;;5121818;27;20426;-54
2021/12/01 03:31:31;;;;;;;;;;;23.10;28.00;;;;;;5107981;27;19924;-60
2021/12/01 03:33:57;;;;;;;;;;;23.10;27.90;;;;;;5122088;27;20006;-53
2021/12/01 03:36:23;;;;;;;;;;;22.90;28.30;;;;;;5127541;27;20375;-55
2021/12/01 03:38:49;;;;;;;;;;;22.90;28.20;;;;;;5121743;27;19961;-54
2021/12/01 03:41:14;;;;;;;;;;;22.90;28.10;;;;;;5101455;27;20014;-55
2021/12/01 03:43:40;;;;;;;;;;;22.90;28.10;;;;;;5127070;27;21193;-53
2021/12/01 03:46:06;;;;;;;;;;;23.00;28.10;;;;;;5121462;27;19932;-54
2021/12/01 03:48:32;;;;;;;;;;;23.10;28.00;;;;;;5103950;27;20661;-53
2021/12/01 03:50:58;;;;;;;;;;;23.10;28.00;;;;;;5127311;27;19931;-55
2021/12/01 03:53:24;;;;;;;;;;;23.00;28.10;;;;;;5121749;27;19928;-54
2021/12/01 03:55:49;;;;;;;;;;;22.90;28.40;;;;;;5126239;27;19924;-55
2021/12/01 03:58:15;;;;;;;;;;;23.00;28.20;;;;;;5123080;27;20026;-54
2021/12/01 04:00:41;;;;;;;;;;;23.00;28.10;;;;;;5121520;27;20943;-56
2021/12/01 04:03:07;;;;;;;;;;;23.00;28.20;;;;;;5126947;27;20022;-55
2021/12/01 04:05:33;;;;;;;;;;;23.10;28.20;;;;;;5121098;27;19924;-54
2021/12/01 04:08:00;;;;;;;;;;;23.00;28.30;;;;;;5121533;27;19979;-55
2021/12/01 04:10:27;;;;;;;;;;;22.90;28.40;;;;;;5107909;27;20018;-56
2021/12/01 04:12:53;;;;;;;;;;;22.90;28.40;;;;;;5103744;27;19924;-51
2021/12/01 04:15:18;;;;;;;;;;;23.00;28.30;;;;;;5123036;27;19950;-55
2021/12/01 04:17:44;;;;;;;;;;;23.00;28.30;;;;;;5125808;27;19979;-54
2021/12/01 04:20:12;;;;;;;;;;;22.90;28.60;;;;;;5120894;27;19939;-55
2021/12/01 04:22:38;;;;;;;;;;;22.90;28.60;;;;;;5107509;27;19923;-53
2021/12/01 04:25:04;;;;;;;;;;;23.00;28.40;;;;;;5121275;27;19923;-53
2021/12/01 04:27:30;;;;;;;;;;;23.00;28.40;;;;;;5121572;27;20484;-51
2021/12/01 04:29:56;;;;;;;;;;;23.10;28.40;;;;;;5126628;27;20007;-55
2021/12/01 04:32:22;;;;;;;;;;;22.90;28.70;;;;;;5121362;27;20386;-55
2021/12/01 04:34:48;;;;;;;;;;;22.90;28.60;;;;;;5121029;27;19930;-53
2021/12/01 04:37:14;;;;;;;;;;;23.00;28.50;;;;;;5126086;27;20061;-54
2021/12/01 04:39:40;;;;;;;;;;;23.00;28.50;;;;;;5121355;27;19930;-56
2021/12/01 04:42:06;;;;;;;;;;;23.00;28.50;;;;;;5125768;28;19971;-55
2021/12/01 04:44:33;;;;;;;;;;;23.00;28.50;;;;;;5121291;28;19923;-53
2021/12/01 04:47:01;;;;;;;;;;;23.00;28.50;;;;;;5121093;28;20018;-55
2021/12/01 04:49:27;;;;;;;;;;;22.90;28.80;;;;;;5126470;28;19963;-55
2021/12/01 04:51:55;;;;;;;;;;;23.00;28.70;;;;;;5121215;28;19927;-53
2021/12/01 04:54:21;;;;;;;;;;;23.00;28.60;;;;;;5121207;28;19931;-51
2021/12/01 04:56:47;;;;;;;;;;;23.00;28.60;;;;;;5126182;28;19973;-53
2021/12/01 04:59:13;;;;;;;;;;;23.10;28.40;;;;;;5120713;28;19923;-54
2021/12/01 05:01:40;;;;;;;;;;;23.00;28.50;;;;;;5124437;28;20526;-54
2021/12/01 05:04:06;;;;;;;;;;;23.00;28.70;;;;;;5123520;28;19991;-58
2021/12/01 05:06:32;;;;;;;;;;;22.90;28.80;;;;;;5120774;28;19935;-53
2021/12/01 05:08:58;;;;;;;;;;;22.80;28.90;;;;;;5126207;28;20355;-52
2021/12/01 05:11:26;;;;;;;;;;;23.00;28.70;;;;;;5120681;28;20329;-54
2021/12/01 05:13:53;;;;;;;;;;;22.90;28.80;;;;;;5120835;28;19924;-52
2021/12/01 05:16:18;;;;;;;;;;;23.00;28.80;;;;;;5125931;28;20069;-50
2021/12/01 05:18:44;;;;;;;;;;;23.10;28.70;;;;;;5120384;28;19924;-60
2021/12/01 05:21:10;;;;;;;;;;;23.10;28.60;;;;;;5120737;28;20371;-57
2021/12/01 05:23:36;;;;;;;;;;;23.00;28.90;;;;;;5126238;28;19923;-52
2021/12/01 05:26:01;;;;;;;;;;;23.00;28.90;;;;;;5120913;28;19934;-51
2021/12/01 05:28:27;;;;;;;;;;;23.00;28.90;;;;;;5106492;28;19992;-57
2021/12/01 05:30:53;;;;;;;;;;;23.00;28.90;;;;;;5120504;28;20398;-54
2021/12/01 05:33:19;;;;;;;;;;;23.00;28.90;;;;;;5120394;28;19932;-54
2021/12/01 05:35:46;;;;;;;;;;;23.00;28.90;;;;;;5125933;28;19923;-57
2021/12/01 05:38:12;;;;;;;;;;;22.70;29.40;;;;;;5119717;28;19924;-57
2021/12/01 05:40:38;;;;;;;;;;;22.80;29.20;;;;;;5120737;28;20082;-56
2021/12/01 05:43:03;;;;;;;;;;;22.90;29.10;;;;;;5125721;28;19934;-54
2021/12/01 05:45:29;;;;;;;;;;;22.90;28.90;;;;;;5120703;28;19979;-54
2021/12/01 05:47:55;;;;;;;;;;;23.00;28.80;;;;;;5126334;27;20398;-55
2021/12/01 05:50:21;;;;;;;;;;;23.10;28.70;;;;;;5124213;27;20275;-56
2021/12/01 05:52:47;;;;;;;;;;;23.00;28.70;;;;;;5123805;27;19924;-54
2021/12/01 05:55:12;;;;;;;;;;;23.10;28.60;;;;;;5129201;27;19923;-54
2021/12/01 05:57:38;;;;;;;;;;;23.00;28.60;;;;;;5123783;27;19931;-54
2021/12/01 06:00:04;;;;;;;;;;;23.00;28.60;;;;;;5123961;27;19931;-54
2021/12/01 06:02:30;;;;;;;;;;;22.90;28.70;;;;;;5129392;27;19927;-54
2021/12/01 06:04:56;;;;;;;;;;;22.90;28.80;;;;;;5123940;27;20383;-55
2021/12/01 06:07:22;;;;;;;;;;;23.00;28.70;;;;;;5129033;27;19930;-54
2021/12/01 06:09:47;;;;;;;;;;;23.00;28.60;;;;;;5123958;27;19931;-53
2021/12/01 06:12:13;;;;;;;;;;;23.00;28.50;;;;;;5123719;27;19930;-53
2021/12/01 06:14:42;;;;;;;;;;;23.10;28.70;;;;;;5128641;27;19924;-55
2021/12/01 06:17:09;;;;;;;;;;;23.00;28.70;;;;;;5124305;27;20307;-61
2021/12/01 06:19:35;;;;;;;;;;;22.90;28.80;;;;;;5123957;27;19935;-55
2021/12/01 06:22:02;;;;;;;;;;;23.00;28.70;;;;;;5128867;27;20056;-56
2021/12/01 06:24:28;;;;;;;;;;;23.00;28.70;;;;;;5123391;27;19930;-56
2021/12/01 06:26:53;;;;;;;;;;;23.00;28.80;;;;;;5125205;27;20014;-56
2021/12/01 06:29:19;;;;;;;;;;;23.00;28.70;;;;;;5127515;27;20324;-53
2021/12/01 06:31:45;;;;;;;;;;;23.10;28.60;;;;;;5105022;27;19981;-54
2021/12/01 06:34:11;;;;;;;;;;;23.00;28.60;;;;;;5128012;27;20004;-58
2021/12/01 06:36:36;;;;;;;;;;;23.00;28.70;;;;;;5105066;27;19924;-55
2021/12/01 06:39:03;;;;;;;;;;;22.90;28.80;;;;;;5123190;27;19923;-55
2021/12/01 06:41:29;;;;;;;;;;;23.00;28.60;;;;;;5128781;27;19940;-54
2021/12/01 06:43:54;;;;;;;;;;;23.10;28.50;;;;;;5122986;27;19925;-60
2021/12/01 06:46:21;;;;;;;;;;;22.90;28.80;;;;;;5104334;27;19924;-56
2021/12/01 06:48:47;;;;;;;;;;;22.90;28.80;;;;;;5109973;27;19923;-57
2021/12/01 06:51:12;;;;;;;;;;;23.00;28.70;;;;;;5103802;27;19934;-55
2021/12/01 06:53:38;;;;;;;;;;;23.10;28.60;;;;;;5128330;27;19927;-56
2021/12/01 06:56:04;;;;;;;;;;;23.10;28.60;;;;;;5123297;27;20346;-61
2021/12/01 06:58:30;;;;;;;;;;;22.90;28.80;;;;;;5104392;27;19931;-58
2021/12/01 07:00:56;;;;;;;;;;;22.90;28.90;;;;;;5126886;27;20431;-54
2021/12/01 07:03:21;;;;;;;;;;;23.00;28.80;;;;;;5122463;27;20322;-60
2021/12/01 07:05:47;;;;;;;;;;;23.00;28.60;;;;;;5122196;27;20439;-54
2021/12/01 07:08:14;;;;;;;;;;;23.00;28.60;;;;;;5108854;27;20280;-54
2021/12/01 07:10:39;;;;;;;;;;;23.10;28.60;;;;;;5121930;27;19989;-57
2021/12/01 07:13:05;;;;;;;;;;;23.20;28.50;;;;;;5128354;27;19923;-54
2021/12/01 07:15:31;;;;;;;;;;;23.00;28.70;;;;;;5104183;27;19930;-57
2021/12/01 07:17:57;;;;;;;;;;;23.10;28.60;;;;;;5122375;27;20400;-56
2021/12/01 07:20:22;;;;;;;;;;;23.10;28.50;;;;;;5127690;27;19931;-54
2021/12/01 07:22:49;;;;;;;;;;;23.20;28.40;;;;;;5121921;27;19930;-58
2021/12/01 07:25:14;;;;;;;;;;;23.10;28.60;;;;;;5122125;27;19930;-56
2021/12/01 07:27:40;;;;;;;;;;;23.10;28.60;;;;;;5127270;27;19931;-56
2021/12/01 07:30:06;;;;;;;;;;;23.00;28.60;;;;;;5121835;27;20393;-56
2021/12/01 07:32:32;;;;;;;;;;;23.10;28.50;;;;;;5127885;27;19923;-54
2021/12/01 07:34:58;;;;;;;;;;;23.00;28.70;;;;;;5122295;27;19945;-58
2021/12/01 07:37:24;;;;;;;;;;;23.00;28.60;;;;;;5122457;27;20425;-56
2021/12/01 07:39:49;;;;;;;;;;;23.00;28.70;;;;;;5127414;27;19985;-53
2021/12/01 07:42:15;;;;;;;;;;;23.10;28.70;;;;;;5121693;27;19934;-62
2021/12/01 07:44:41;;;;;;;;;;;23.10;28.70;;;;;;5103328;27;19928;-57
2021/12/01 07:47:07;;;;;;;;;;;22.90;29.00;;;;;;5108328;27;19923;-54
2021/12/01 07:49:33;;;;;;;;;;;23.10;28.90;;;;;;5122078;27;19931;-55
2021/12/01 07:51:58;;;;;;;;;;;23.10;28.80;;;;;;5125545;27;19929;-56
2021/12/01 07:54:24;;;;;;;;;;;23.10;28.80;;;;;;5123803;27;19974;-57
2021/12/01 07:56:50;;;;;;;;;;;23.00;28.80;;;;;;5121716;27;19924;-55
2021/12/01 07:59:16;;;;;;;;;;;23.00;28.80;;;;;;5126577;27;19923;-55
2021/12/01 08:01:45;;;;;;;;;;;23.00;28.80;;;;;;5121248;27;19948;-60
2021/12/01 08:04:10;;;;;;;;;;;23.00;28.80;;;;;;5121417;27;19930;-55
2021/12/01 08:06:37;;;;;;;;;;;23.00;28.80;;;;;;5126134;27;19928;-57
2021/12/01 08:09:03;;;;;;;;;;;23.00;28.80;;;;;;5103340;27;19930;-57
2021/12/01 08:11:29;;;;;;;;;;;23.00;28.80;;;;;;5121169;27;19927;-56
2021/12/01 08:13:55;;;;;;;;;;;23.10;28.80;;;;;;5126977;27;19938;-57
2021/12/01 08:16:20;;;;;;;;;;;22.80;29.10;;;;;;5121237;27;19954;-56
2021/12/01 08:18:51;;;;;;;;;;;22.80;29.10;;;;;;5126496;27;19923;-57
2021/12/01 08:21:20;;;;;;;;;;;22.90;29.00;;;;;;5120834;27;19934;-55
2021/12/01 08:23:46;;;;;;;;;;;23.00;28.80;;;;;;5120566;27;20450;-61
2021/12/01 08:26:12;;;;;;;;;;;23.00;28.80;;;;;;5108356;27;20019;-55
2021/12/01 08:28:37;;;;;;;;;;;23.00;28.80;;;;;;5121450;27;19931;-56
2021/12/01 08:31:03;;;;;;;;;;;23.10;28.80;;;;;;5121147;27;20188;-55
2021/12/01 08:33:29;;;;;;;;;;;23.10;28.80;;;;;;5126540;27;20374;-59
2021/12/01 08:35:54;;;;;;;;;;;23.00;29.10;;;;;;5120660;27;19928;-54
2021/12/01 08:38:20;;;;;;;;;;;23.00;29.00;;;;;;5126235;27;20043;-52
2021/12/01 08:40:46;;;;;;;;;;;23.10;29.00;;;;;;5121168;27;19930;-61
2021/12/01 08:43:12;;;;;;;;;;;23.00;29.10;;;;;;5120366;27;20018;-58
2021/12/01 08:45:38;;;;;;;;;;;23.00;29.00;;;;;;5126472;27;19931;-58
2021/12/01 08:48:04;;;;;;;;;;;23.10;29.00;;;;;;5121074;27;20410;-55
2021/12/01 08:50:29;;;;;;;;;;;22.80;29.30;;;;;;5121017;28;19931;-59
2021/12/01 08:52:55;;;;;;;;;;;22.90;29.30;;;;;;5126259;28;19935;-55
2021/12/01 08:55:23;;;;;;;;;;;23.00;29.20;;;;;;5120506;28;19927;-58
2021/12/01 08:57:49;;;;;;;;;;;22.90;29.40;;;;;;5123112;28;20072;-56
2021/12/01 09:00:15;;;;;;;;;;;23.10;29.10;;;;;;5123624;28;19923;-59
2021/12/01 09:02:41;;;;;;;;;;;22.80;29.50;;;;;;5120319;28;19927;-58
2021/12/01 09:05:07;;;;;;;;;;;22.90;29.30;;;;;;5107963;28;20455;-57
2021/12/01 09:07:33;;;;;;;;;;;23.00;29.20;;;;;;5120711;28;20290;-61
2021/12/01 09:09:59;;;;;;;;;;;23.10;29.20;;;;;;5120671;28;19974;-57
2021/12/01 09:12:24;;;;;;;;;;;23.00;29.40;;;;;;5126036;28;19934;-57
2021/12/01 09:14:52;;;;;;;;;;;23.10;29.30;;;;;;5120600;28;19935;-59
2021/12/01 09:17:17;;;;;;;;;;;22.70;30.00;;;;;;5120274;28;20367;-54
2021/12/01 09:19:43;;;;;;;;;;;22.90;29.60;;;;;;5125295;28;19928;-60
2021/12/01 09:22:09;;;;;;;;;;;23.00;29.40;;;;;;5120638;27;20378;-54
2021/12/01 09:24:35;;;;;;;;;;;23.00;29.40;;;;;;5129320;27;19937;-60
2021/12/01 09:27:00;;;;;;;;;;;23.00;29.40;;;;;;5118273;27;19976;-57
2021/12/01 09:29:27;;;;;;;;;;;22.90;29.60;;;;;;5103607;28;20515;-57
2021/12/01 09:31:56;;;;;;;;;;;23.00;29.40;;;;;;5109111;28;20438;-57
2021/12/01 09:34:22;;;;;;;;;;;22.90;29.50;;;;;;5103860;28;19923;-59
2021/12/01 09:36:48;;;;;;;;;;;23.00;29.40;;;;;;5102970;28;20411;-56
2021/12/01 09:39:14;;;;;;;;;;;22.80;29.70;;;;;;5108432;28;19930;-55
2021/12/01 09:41:39;;;;;;;;;;;23.10;29.40;;;;;;5103664;28;19974;-58
2021/12/01 09:44:05;;;;;;;;;;;22.90;29.60;;;;;;5107724;28;19924;-59
2021/12/01 09:46:31;;;;;;;;;;;22.80;29.60;;;;;;5103834;28;19927;-60
2021/12/01 09:48:57;;;;;;;;;;;22.90;29.50;;;;;;5103503;28;19931;-58
2021/12/01 09:51:22;;;;;;;;;;;23.00;29.30;;;;;;5108558;28;19928;-61
2021/12/01 09:53:49;;;;;;;;;;;23.10;29.30;;;;;;5103537;28;19923;-53
2021/12/01 09:56:14;;;;;;;;;;;22.80;29.70;;;;;;5102920;28;20015;-59
2021/12/01 09:58:42;;;;;;;;;;;22.90;29.50;;;;;;5108628;28;19930;-54
2021/12/01 10:01:11;;;;;;;;;;;23.10;29.30;;;;;;5103727;28;19927;-57
2021/12/01 10:03:36;;;;;;;;;;;22.80;29.60;;;;;;5106312;28;19988;-57
2021/12/01 10:06:13;;;;;;;;;;;22.90;29.70;;;;;;5106057;28;20403;-62
2021/12/01 10:08:40;;;;;;;;;;;22.90;29.60;;;;;;5103115;28;19924;-55
2021/12/01 10:11:10;;;;;;;;;;;23.10;29.50;;;;;;5103239;28;19924;-59
2021/12/01 10:13:37;;;;;;;;;;;23.00;29.60;;;;;;5101981;28;19936;-58
2021/12/01 10:16:05;;;;;;;;;;;23.00;29.60;;;;;;5102125;28;19927;-61
2021/12/01 10:18:37;;;;;;;;;;;23.10;29.60;;;;;;5107203;28;19928;-58
2021/12/01 10:21:05;;;;;;;;;;;22.80;29.80;;;;;;5103047;28;19965;-57
2021/12/01 10:23:31;;;;;;;;;;;23.10;29.60;;;;;;5103137;28;20035;-56
2021/12/01 10:26:05;;;;;;;;;;;22.80;30.10;;;;;;5108253;28;19928;-59
2021/12/01 10:28:31;;;;;;;;;;;22.90;29.80;;;;;;5101143;28;19952;-62
2021/12/01 10:30:57;;;;;;;;;;;23.00;29.80;;;;;;5102641;28;20263;-57
2021/12/01 10:33:23;;;;;;;;;;;23.00;29.90;;;;;;5107777;28;19928;-60
2021/12/01 10:35:49;;;;;;;;;;;22.60;30.90;;;;;;5102251;28;19924;-58
2021/12/01 10:38:14;;;;;;;;;;;22.80;30.50;;;;;;5108114;28;19924;-57
2021/12/01 10:40:40;;;;;;;;;;;23.00;30.20;;;;;;5101306;28;19927;-54
2021/12/01 10:43:10;;;;;;;;;;;22.90;30.30;;;;;;5084545;28;19930;-58
2021/12/01 10:45:38;;;;;;;;;;;23.10;30.00;;;;;;5107677;28;19932;-60
2021/12/01 10:48:04;;;;;;;;;;;22.90;30.30;;;;;;5101041;28;20031;-55
2021/12/01 10:50:31;;;;;;;;;;;23.00;30.10;;;;;;5101130;28;19928;-58
2021/12/01 10:53:01;;;;;;;;;;;23.00;29.90;;;;;;5107197;28;19928;-60
2021/12/01 10:55:27;;;;;;;;;;;22.60;30.70;;;;;;5102630;28;19928;-56
2021/12/01 10:57:57;;;;;;;;;;;22.90;30.20;;;;;;5101991;28;20383;-57
2021/12/01 11:00:23;;;;;;;;;;;23.10;30.00;;;;;;5106457;28;20012;-60
2021/12/01 11:02:49;;;;;;;;;;;22.50;30.90;;;;;;5102046;28;20507;-54
2021/12/01 11:05:27;;;;;;;;;;;22.90;30.40;;;;;;5107092;28;19978;-60
2021/12/01 11:07:53;;;;;;;;;;;23.00;30.30;;;;;;5102043;28;19923;-58
2021/12/01 11:10:19;;;;;;;;;;;22.80;30.60;;;;;;5101582;28;19943;-58
2021/12/01 11:12:46;;;;;;;;;;;23.00;30.40;;;;;;5107285;28;19924;-59
2021/12/01 11:15:15;;;;;;;;;;;23.10;30.30;;;;;;5102257;27;19928;-55
2021/12/01 11:17:41;;;;;;;;;;;22.90;30.60;;;;;;5101579;28;20660;-60
2021/12/01 11:20:07;;;;;;;;;;;23.10;30.50;;;;;;5107522;28;20440;-56
2021/12/01 11:22:36;;;;;;;;;;;22.90;30.80;;;;;;5101721;27;19924;-57
2021/12/01 11:25:21;;;;;;;;;;;23.00;30.80;;;;;;5101599;28;20551;-56
2021/12/01 11:27:47;;;;;;;;;;;23.00;31.00;;;;;;5106493;28;19927;-59
2021/12/01 11:30:13;;;;;;;;;;;22.90;31.20;;;;;;5101159;28;20366;-57
2021/12/01 11:32:39;;;;;;;;;;;23.00;31.10;;;;;;5105086;28;20010;-55
2021/12/01 11:35:05;;;;;;;;;;;23.00;31.10;;;;;;5104006;28;19930;-56
2021/12/01 11:37:31;;;;;;;;;;;23.00;31.30;;;;;;5083988;28;19947;-61
2021/12/01 11:39:57;;;;;;;;;;;22.70;31.80;;;;;;5106696;28;19923;-57
2021/12/01 11:42:22;;;;;;;;;;;22.90;31.50;;;;;;5099786;28;20432;-58
2021/12/01 11:44:48;;;;;;;;;;;22.90;31.50;;;;;;5101146;28;20913;-57
2021/12/01 11:47:15;;;;;;;;;;;23.00;31.50;;;;;;5104127;28;19924;-57
2021/12/01 11:49:41;;;;;;;;;;;22.90;31.70;;;;;;5101126;28;19930;-59
2021/12/01 11:52:08;;;;;;;;;;;23.00;31.60;;;;;;5101797;28;19934;-62
2021/12/01 11:54:36;;;;;;;;;;;22.90;31.80;;;;;;5105370;28;19924;-55
2021/12/01 11:57:05;;;;;;;;;;;23.00;31.70;;;;;;5100625;28;20522;-61
2021/12/01 11:59:32;;;;;;;;;;;22.80;32.30;;;;;;5106356;27;19928;-56
2021/12/01 12:01:58;;;;;;;;;;;22.70;32.70;;;;;;5100573;28;19924;-58
2021/12/01 12:04:25;;;;;;;;;;;22.90;32.40;;;;;;5100833;27;19924;-60
2021/12/01 12:06:53;;;;;;;;;;;23.00;32.30;;;;;;5105657;28;19923;-57
2021/12/01 12:09:22;;;;;;;;;;;23.10;32.40;;;;;;5101191;28;19946;-59
2021/12/01 12:11:48;;;;;;;;;;;23.00;32.20;;;;;;5100974;28;20474;-59
2021/12/01 12:14:28;;;;;;;;;;;22.80;32.70;;;;;;5106265;28;19927;-59
2021/12/01 12:17:05;;;;;;;;;;;23.00;32.30;;;;;;5101081;28;19952;-58
2021/12/01 12:19:43;;;;;;;;;;;22.80;32.90;;;;;;5100443;28;20297;-57
2021/12/01 12:22:09;;;;;;;;;;;22.90;32.80;;;;;;5106032;28;19924;-61
2021/12/01 12:24:42;;;;;;;;;;;22.80;33.00;;;;;;5098585;28;19980;-56
2021/12/01 12:27:16;;;;;;;;;;;23.00;32.70;;;;;;5100788;28;19936;-56
2021/12/01 12:29:46;;;;;;;;;;;23.00;32.70;;;;;;5104768;28;20298;-56
2021/12/01 12:32:16;;;;;;;;;;;22.90;32.90;;;;;;5100654;28;19979;-60
2021/12/01 12:34:51;;;;;;;;;;;23.00;32.80;;;;;;5101121;28;20006;-57
2021/12/01 12:37:21;;;;;;;;;;;23.00;32.90;;;;;;5104324;28;20363;-55
2021/12/01 12:39:47;;;;;;;;;;;22.50;33.50;;;;;;5100215;28;19924;-58
2021/12/01 12:42:13;;;;;;;;;;;22.80;33.00;;;;;;5105475;28;19934;-57
2021/12/01 12:44:40;;;;;;;;;;;23.00;32.60;;;;;;5099938;28;19978;-58
2021/12/01 12:47:09;;;;;;;;;;;22.90;32.70;;;;;;5099075;28;19972;-58
2021/12/01 12:49:36;;;;;;;;;;;23.10;32.60;;;;;;5105823;28;20905;-59
2021/12/01 12:52:21;;;;;;;;;;;22.90;32.80;;;;;;5100477;28;20382;-62
2021/12/01 12:54:47;;;;;;;;;;;22.90;32.70;;;;;;5099958;28;20006;-58
2021/12/01 12:57:14;;;;;;;;;;;22.90;32.90;;;;;;5106461;28;19931;-58
2021/12/01 12:59:39;;;;;;;;;;;23.00;32.80;;;;;;5105125;28;19924;-58
2021/12/01 13:02:25;;;;;;;;;;;22.60;33.70;;;;;;5103646;28;19939;-57
2021/12/01 13:04:54;;;;;;;;;;;22.80;33.20;;;;;;5109618;28;19928;-57
2021/12/01 13:07:28;;;;;;;;;;;23.00;33.00;;;;;;5104842;28;20404;-59
2021/12/01 13:10:13;;;;;;;;;;;23.00;33.10;;;;;;5104462;28;19928;-60
2021/12/01 13:12:43;;;;;;;;;;;23.00;33.10;;;;;;5108420;28;19938;-59
2021/12/01 13:15:18;;;;;;;;;;;23.00;33.20;;;;;;5109265;27;19927;-59
2021/12/01 13:17:47;;;;;;;;;;;22.80;33.90;;;;;;5124473;27;19923;-62
2021/12/01 13:20:13;;;;;;;;;;;23.00;33.40;;;;;;5129316;27;20464;-58
2021/12/01 13:22:39;;;;;;;;;;;22.90;33.60;;;;;;5124805;27;20052;-62
2021/12/01 13:25:07;;;;;;;;;;;23.00;33.40;;;;;;5124729;27;19924;-60
2021/12/01 13:27:43;;;;;;;;;;;22.60;34.20;;;;;;5130055;27;20426;-58
2021/12/01 13:30:09;;;;;;;;;;;22.80;33.90;;;;;;5124660;27;19975;-56
2021/12/01 13:32:36;;;;;;;;;;;23.00;33.60;;;;;;5129352;27;20038;-56
2021/12/01 13:35:03;;;;;;;;;;;22.90;33.70;;;;;;5125529;27;19928;-59
2021/12/01 13:37:29;;;;;;;;;;;22.90;33.50;;;;;;5123958;27;19927;-58
2021/12/01 13:39:55;;;;;;;;;;;22.90;33.50;;;;;;5111152;27;20980;-61
2021/12/01 13:42:24;;;;;;;;;;;23.00;33.40;;;;;;5124306;27;20694;-60
2021/12/01 13:44:50;;;;;;;;;;;23.00;33.30;;;;;;5124415;27;19923;-60
2021/12/01 13:47:17;;;;;;;;;;;23.00;33.30;;;;;;5111217;27;20295;-58
2021/12/01 13:49:48;;;;;;;;;;;23.10;33.20;;;;;;5124208;27;20359;-59
2021/12/01 13:52:30;;;;;;;;;;;22.80;33.70;;;;;;5123698;27;20370;-57
2021/12/01 13:54:56;;;;;;;;;;;23.00;33.40;;;;;;5129439;27;20007;-59
2021/12/01 13:57:21;;;;;;;;;;;22.70;33.90;;;;;;5104765;27;19923;-58
2021/12/01 13:59:48;;;;;;;;;;;22.80;33.70;;;;;;5126435;27;20302;-56
2021/12/01 14:02:24;;;;;;;;;;;23.00;33.30;;;;;;5107201;27;20314;-61
2021/12/01 14:04:50;;;;;;;;;;;23.00;33.30;;;;;;5105664;27;19928;-58
2021/12/01 14:07:16;;;;;;;;;;;22.80;33.80;;;;;;5129352;27;19924;-58
2021/12/01 14:09:52;;;;;;;;;;;23.00;33.30;;;;;;5122649;27;19930;-58
2021/12/01 14:12:18;;;;;;;;;;;22.70;33.90;;;;;;5123487;27;19927;-57
2021/12/01 14:14:44;;;;;;;;;;;22.90;33.40;;;;;;5128399;27;20302;-60
2021/12/01 14:17:10;;;;;;;;;;;22.90;33.40;;;;;;5104880;27;19923;-56
2021/12/01 14:19:36;;;;;;;;;;;23.00;33.30;;;;;;5124086;27;19944;-60